sensor_id;sensor_type;location;lat;lon;timestamp;temperature;humidity
3051;DHT22;1535;51.098;6.414;2023-08-12T00:01:54;20.90;99.90
3051;DHT22;1535;51.098;6.414;2023-08-12T00:04:21;20.90;99.90
3051;DHT22;1535;51.098;6.414;2023-08-12T00:06:51;20.80;99.90
3051;DHT22;1535;51.098;6.414;2023-08-12T00:09:18;20.80;99.90
3051;DHT22;1535;51.098;6.414;2023-08-12T00:11:46;20.80;99.90
3051;DHT22;1535;51.098;6.414;2023-08-12T00:14:13;20.70;99.90
3051;DHT22;1535;51.098;6.414;2023-08-12T00:16:41;20.80;99.90
3051;DHT22;1535;51.098;6.414;2023-08-12T00:19:09;20.70;99.90
3051;DHT22;1535;51.098;6.414;2023-08-12T00:21:36;20.70;99.90
3051;DHT22;1535;51.098;6.414;2023-08-12T00:24:05;20.70;99.90
3051;DHT22;1535;51.098;6.414;2023-08-12T00:26:33;20.70;99.90
3051;DHT22;1535;51.098;6.414;2023-08-12T00:29:00;20.70;99.90
3051;DHT22;1535;51.098;6.414;2023-08-12T00:31:28;20.70;99.90
3051;DHT22;1535;51.098;6.414;2023-08-12T00:33:56;20.70;99.90
3051;DHT22;1535;51.098;6.414;2023-08-12T00:36:23;20.80;99.90
3051;DHT22;1535;51.098;6.414;2023-08-12T00:38:50;20.70;99.90
3051;DHT22;1535;51.098;6.414;2023-08-12T00:41:17;20.80;99.90
3051;DHT22;1535;51.098;6.414;2023-08-12T00:43:44;20.80;99.90
3051;DHT22;1535;51.098;6.414;2023-08-12T00:46:12;20.70;99.90
3051;DHT22;1535;51.098;6.414;2023-08-12T00:48:40;20.70;99.90
3051;DHT22;1535;51.098;6.414;2023-08-12T00:51:08;20.70;99.90
3051;DHT22;1535;51.098;6.414;2023-08-12T00:53:37;20.70;99.90
3051;DHT22;1535;51.098;6.414;2023-08-12T00:56:04;20.60;99.90
3051;DHT22;1535;51.098;6.414;2023-08-12T00:58:32;20.70;99.90
3051;DHT22;1535;51.098;6.414;2023-08-12T01:01:00;20.60;99.90
3051;DHT22;1535;51.098;6.414;2023-08-12T01:03:27;20.70;99.90
3051;DHT22;1535;51.098;6.414;2023-08-12T01:05:57;20.70;99.90
3051;DHT22;1535;51.098;6.414;2023-08-12T01:08:30;20.80;99.90
3051;DHT22;1535;51.098;6.414;2023-08-12T01:11:03;20.80;99.90
3051;DHT22;1535;51.098;6.414;2023-08-12T01:13:39;20.80;99.90
3051;DHT22;1535;51.098;6.414;2023-08-12T01:16:14;20.80;99.90
3051;DHT22;1535;51.098;6.414;2023-08-12T01:18:42;20.90;99.90
3051;DHT22;1535;51.098;6.414;2023-08-12T01:21:11;20.80;99.90
3051;DHT22;1535;51.098;6.414;2023-08-12T01:23:43;20.80;99.90
3051;DHT22;1535;51.098;6.414;2023-08-12T01:26:10;20.80;99.90
3051;DHT22;1535;51.098;6.414;2023-08-12T01:28:37;20.70;99.90
3051;DHT22;1535;51.098;6.414;2023-08-12T01:31:08;20.80;99.90
3051;DHT22;1535;51.098;6.414;2023-08-12T01:33:43;20.80;99.90
3051;DHT22;1535;51.098;6.414;2023-08-12T01:36:15;20.80;99.90
3051;DHT22;1535;51.098;6.414;2023-08-12T01:38:45;20.80;99.90
3051;DHT22;1535;51.098;6.414;2023-08-12T01:41:13;20.80;99.90
3051;DHT22;1535;51.098;6.414;2023-08-12T01:43:42;20.80;99.90
3051;DHT22;1535;51.098;6.414;2023-08-12T01:46:10;20.80;99.90
3051;DHT22;1535;51.098;6.414;2023-08-12T01:48:37;20.80;99.90
3051;DHT22;1535;51.098;6.414;2023-08-12T01:51:04;20.80;99.90
3051;DHT22;1535;51.098;6.414;2023-08-12T01:53:32;20.80;99.90
3051;DHT22;1535;51.098;6.414;2023-08-12T01:56:02;20.80;99.90
3051;DHT22;1535;51.098;6.414;2023-08-12T01:58:29;20.80;99.90
3051;DHT22;1535;51.098;6.414;2023-08-12T02:00:57;20.80;99.90
3051;DHT22;1535;51.098;6.414;2023-08-12T02:03:24;20.90;99.90
3051;DHT22;1535;51.098;6.414;2023-08-12T02:05:50;20.90;99.90
3051;DHT22;1535;51.098;6.414;2023-08-12T02:08:18;20.80;99.90
3051;DHT22;1535;51.098;6.414;2023-08-12T02:10:45;20.80;99.90
3051;DHT22;1535;51.098;6.414;2023-08-12T02:13:13;20.80;99.90
3051;DHT22;1535;51.098;6.414;2023-08-12T02:15:43;20.90;99.90
3051;DHT22;1535;51.098;6.414;2023-08-12T02:18:10;20.90;99.90
3051;DHT22;1535;51.098;6.414;2023-08-12T02:20:36;20.80;99.90
3051;DHT22;1535;51.098;6.414;2023-08-12T02:23:03;20.80;99.90
3051;DHT22;1535;51.098;6.414;2023-08-12T02:25:31;20.90;99.90
3051;DHT22;1535;51.098;6.414;2023-08-12T02:27:59;20.90;99.90
3051;DHT22;1535;51.098;6.414;2023-08-12T02:30:29;20.90;99.90
3051;DHT22;1535;51.098;6.414;2023-08-12T02:32:55;20.80;99.90
3051;DHT22;1535;51.098;6.414;2023-08-12T02:35:23;20.80;99.90
3051;DHT22;1535;51.098;6.414;2023-08-12T02:37:50;20.80;99.90
3051;DHT22;1535;51.098;6.414;2023-08-12T02:40:18;20.80;99.90
3051;DHT22;1535;51.098;6.414;2023-08-12T02:42:45;20.80;99.90
3051;DHT22;1535;51.098;6.414;2023-08-12T02:45:12;20.80;99.90
3051;DHT22;1535;51.098;6.414;2023-08-12T02:47:40;20.80;99.90
3051;DHT22;1535;51.098;6.414;2023-08-12T02:50:08;20.80;99.90
3051;DHT22;1535;51.098;6.414;2023-08-12T02:52:36;20.80;99.90
3051;DHT22;1535;51.098;6.414;2023-08-12T02:55:03;20.80;99.90
3051;DHT22;1535;51.098;6.414;2023-08-12T02:57:30;20.80;99.90
3051;DHT22;1535;51.098;6.414;2023-08-12T02:59:57;20.80;99.90
3051;DHT22;1535;51.098;6.414;2023-08-12T03:02:24;20.80;99.90
3051;DHT22;1535;51.098;6.414;2023-08-12T03:04:53;20.80;99.90
3051;DHT22;1535;51.098;6.414;2023-08-12T03:07:20;20.80;99.90
3051;DHT22;1535;51.098;6.414;2023-08-12T03:09:47;20.80;99.90
3051;DHT22;1535;51.098;6.414;2023-08-12T03:12:14;20.80;99.90
3051;DHT22;1535;51.098;6.414;2023-08-12T03:14:41;20.80;99.90
3051;DHT22;1535;51.098;6.414;2023-08-12T03:17:08;20.80;99.90
3051;DHT22;1535;51.098;6.414;2023-08-12T03:19:36;20.80;99.90
3051;DHT22;1535;51.098;6.414;2023-08-12T03:22:04;20.80;99.90
3051;DHT22;1535;51.098;6.414;2023-08-12T03:24:32;20.80;99.90
3051;DHT22;1535;51.098;6.414;2023-08-12T03:26:59;20.80;99.90
3051;DHT22;1535;51.098;6.414;2023-08-12T03:29:27;20.80;99.90
3051;DHT22;1535;51.098;6.414;2023-08-12T03:31:54;20.80;99.90
3051;DHT22;1535;51.098;6.414;2023-08-12T03:34:21;20.70;99.90
3051;DHT22;1535;51.098;6.414;2023-08-12T03:36:49;20.70;99.90
3051;DHT22;1535;51.098;6.414;2023-08-12T03:39:17;20.70;99.90
3051;DHT22;1535;51.098;6.414;2023-08-12T03:41:44;20.70;99.90
3051;DHT22;1535;51.098;6.414;2023-08-12T03:44:11;20.60;99.90
3051;DHT22;1535;51.098;6.414;2023-08-12T03:46:39;20.60;99.90
3051;DHT22;1535;51.098;6.414;2023-08-12T03:49:06;20.60;99.90
3051;DHT22;1535;51.098;6.414;2023-08-12T03:51:32;20.60;99.90
3051;DHT22;1535;51.098;6.414;2023-08-12T03:53:59;20.60;99.90
3051;DHT22;1535;51.098;6.414;2023-08-12T03:56:28;20.60;99.90
3051;DHT22;1535;51.098;6.414;2023-08-12T03:58:55;20.60;99.90
3051;DHT22;1535;51.098;6.414;2023-08-12T04:01:22;20.60;99.90
3051;DHT22;1535;51.098;6.414;2023-08-12T04:03:49;20.70;99.90
3051;DHT22;1535;51.098;6.414;2023-08-12T04:06:16;20.70;99.90
3051;DHT22;1535;51.098;6.414;2023-08-12T04:08:44;20.70;99.90
3051;DHT22;1535;51.098;6.414;2023-08-12T04:11:11;20.80;99.90
3051;DHT22;1535;51.098;6.414;2023-08-12T04:13:39;20.80;99.90
3051;DHT22;1535;51.098;6.414;2023-08-12T04:16:06;20.70;99.90
3051;DHT22;1535;51.098;6.414;2023-08-12T04:18:34;20.70;99.90
3051;DHT22;1535;51.098;6.414;2023-08-12T04:21:00;20.70;99.90
3051;DHT22;1535;51.098;6.414;2023-08-12T04:23:27;20.80;99.90
3051;DHT22;1535;51.098;6.414;2023-08-12T04:25:55;20.80;99.90
3051;DHT22;1535;51.098;6.414;2023-08-12T04:28:21;20.80;99.90
3051;DHT22;1535;51.098;6.414;2023-08-12T04:30:50;20.60;99.90
3051;DHT22;1535;51.098;6.414;2023-08-12T04:33:19;20.60;99.90
3051;DHT22;1535;51.098;6.414;2023-08-12T04:35:46;20.70;99.90
3051;DHT22;1535;51.098;6.414;2023-08-12T04:38:13;20.70;99.90
3051;DHT22;1535;51.098;6.414;2023-08-12T04:40:42;20.70;99.90
3051;DHT22;1535;51.098;6.414;2023-08-12T04:43:09;20.70;99.90
3051;DHT22;1535;51.098;6.414;2023-08-12T04:45:36;20.70;99.90
3051;DHT22;1535;51.098;6.414;2023-08-12T04:48:06;20.60;99.90
3051;DHT22;1535;51.098;6.414;2023-08-12T04:50:34;20.70;99.90
3051;DHT22;1535;51.098;6.414;2023-08-12T04:53:02;20.60;99.90
3051;DHT22;1535;51.098;6.414;2023-08-12T04:55:29;20.60;99.90
3051;DHT22;1535;51.098;6.414;2023-08-12T04:57:56;20.60;99.90
3051;DHT22;1535;51.098;6.414;2023-08-12T05:00:24;20.70;99.90
3051;DHT22;1535;51.098;6.414;2023-08-12T05:02:51;20.70;99.90
3051;DHT22;1535;51.098;6.414;2023-08-12T05:05:20;20.70;99.90
3051;DHT22;1535;51.098;6.414;2023-08-12T05:07:47;20.70;99.90
3051;DHT22;1535;51.098;6.414;2023-08-12T05:10:15;20.80;99.90
3051;DHT22;1535;51.098;6.414;2023-08-12T05:12:42;20.80;99.90
3051;DHT22;1535;51.098;6.414;2023-08-12T05:15:09;20.70;99.90
3051;DHT22;1535;51.098;6.414;2023-08-12T05:17:37;20.70;99.90
3051;DHT22;1535;51.098;6.414;2023-08-12T05:20:06;20.80;99.90
3051;DHT22;1535;51.098;6.414;2023-08-12T05:22:34;20.80;99.90
3051;DHT22;1535;51.098;6.414;2023-08-12T05:25:01;20.90;99.90
3051;DHT22;1535;51.098;6.414;2023-08-12T05:27:29;20.90;99.90
3051;DHT22;1535;51.098;6.414;2023-08-12T05:29:55;21.00;99.90
3051;DHT22;1535;51.098;6.414;2023-08-12T05:32:22;21.00;99.90
3051;DHT22;1535;51.098;6.414;2023-08-12T05:34:51;20.90;99.90
3051;DHT22;1535;51.098;6.414;2023-08-12T05:37:18;20.90;99.90
3051;DHT22;1535;51.098;6.414;2023-08-12T05:39:47;20.90;99.90
3051;DHT22;1535;51.098;6.414;2023-08-12T05:42:14;20.70;99.90
3051;DHT22;1535;51.098;6.414;2023-08-12T05:44:41;20.80;99.90
3051;DHT22;1535;51.098;6.414;2023-08-12T05:47:08;20.70;99.90
3051;DHT22;1535;51.098;6.414;2023-08-12T05:49:35;20.70;99.90
3051;DHT22;1535;51.098;6.414;2023-08-12T05:52:03;20.70;99.90
3051;DHT22;1535;51.098;6.414;2023-08-12T05:54:30;20.60;99.90
3051;DHT22;1535;51.098;6.414;2023-08-12T05:56:58;20.60;99.90
3051;DHT22;1535;51.098;6.414;2023-08-12T05:59:25;20.60;99.90
3051;DHT22;1535;51.098;6.414;2023-08-12T06:01:54;20.60;99.90
3051;DHT22;1535;51.098;6.414;2023-08-12T06:04:21;20.50;99.90
3051;DHT22;1535;51.098;6.414;2023-08-12T06:06:48;20.60;99.90
3051;DHT22;1535;51.098;6.414;2023-08-12T06:09:15;20.50;99.90
3051;DHT22;1535;51.098;6.414;2023-08-12T06:11:42;20.50;99.90
3051;DHT22;1535;51.098;6.414;2023-08-12T06:14:10;20.50;99.90
3051;DHT22;1535;51.098;6.414;2023-08-12T06:16:37;20.40;99.90
3051;DHT22;1535;51.098;6.414;2023-08-12T06:19:04;20.50;99.90
3051;DHT22;1535;51.098;6.414;2023-08-12T06:21:32;20.40;99.90
3051;DHT22;1535;51.098;6.414;2023-08-12T06:23:59;20.40;99.90
3051;DHT22;1535;51.098;6.414;2023-08-12T06:26:26;20.30;99.90
3051;DHT22;1535;51.098;6.414;2023-08-12T06:28:53;20.40;99.90
3051;DHT22;1535;51.098;6.414;2023-08-12T06:31:22;20.40;99.90
3051;DHT22;1535;51.098;6.414;2023-08-12T06:33:50;20.40;99.90
3051;DHT22;1535;51.098;6.414;2023-08-12T06:36:16;20.40;99.90
3051;DHT22;1535;51.098;6.414;2023-08-12T06:38:43;20.40;99.90
3051;DHT22;1535;51.098;6.414;2023-08-12T06:41:10;20.50;99.90
3051;DHT22;1535;51.098;6.414;2023-08-12T06:43:37;20.50;99.90
3051;DHT22;1535;51.098;6.414;2023-08-12T06:46:04;20.40;99.90
3051;DHT22;1535;51.098;6.414;2023-08-12T06:48:32;20.40;99.90
3051;DHT22;1535;51.098;6.414;2023-08-12T06:51:00;20.50;99.90
3051;DHT22;1535;51.098;6.414;2023-08-12T06:53:32;20.70;99.90
3051;DHT22;1535;51.098;6.414;2023-08-12T06:55:59;20.80;99.90
3051;DHT22;1535;51.098;6.414;2023-08-12T06:58:25;20.90;99.90
3051;DHT22;1535;51.098;6.414;2023-08-12T07:00:52;21.10;99.90
3051;DHT22;1535;51.098;6.414;2023-08-12T07:03:20;21.20;99.90
3051;DHT22;1535;51.098;6.414;2023-08-12T07:05:49;21.30;99.90
3051;DHT22;1535;51.098;6.414;2023-08-12T07:08:16;21.30;99.90
3051;DHT22;1535;51.098;6.414;2023-08-12T07:10:43;21.40;99.90
3051;DHT22;1535;51.098;6.414;2023-08-12T07:13:09;21.40;99.90
3051;DHT22;1535;51.098;6.414;2023-08-12T07:15:36;21.50;99.90
3051;DHT22;1535;51.098;6.414;2023-08-12T07:18:04;21.50;99.90
3051;DHT22;1535;51.098;6.414;2023-08-12T07:20:31;21.50;99.90
3051;DHT22;1535;51.098;6.414;2023-08-12T07:23:00;21.30;99.90
3051;DHT22;1535;51.098;6.414;2023-08-12T07:25:27;21.30;99.90
3051;DHT22;1535;51.098;6.414;2023-08-12T07:27:53;21.30;99.90
3051;DHT22;1535;51.098;6.414;2023-08-12T07:30:20;21.10;99.90
3051;DHT22;1535;51.098;6.414;2023-08-12T07:32:47;21.10;99.90
3051;DHT22;1535;51.098;6.414;2023-08-12T07:35:14;21.20;99.90
3051;DHT22;1535;51.098;6.414;2023-08-12T07:37:41;21.10;99.90
3051;DHT22;1535;51.098;6.414;2023-08-12T07:40:11;21.10;99.90
3051;DHT22;1535;51.098;6.414;2023-08-12T07:42:38;21.20;99.90
3051;DHT22;1535;51.098;6.414;2023-08-12T07:45:06;21.30;99.90
3051;DHT22;1535;51.098;6.414;2023-08-12T07:47:33;21.30;99.90
3051;DHT22;1535;51.098;6.414;2023-08-12T07:50:00;21.30;99.90
3051;DHT22;1535;51.098;6.414;2023-08-12T07:52:27;21.40;99.90
3051;DHT22;1535;51.098;6.414;2023-08-12T07:54:54;21.40;99.90
3051;DHT22;1535;51.098;6.414;2023-08-12T07:57:22;21.50;99.90
3051;DHT22;1535;51.098;6.414;2023-08-12T07:59:49;21.60;99.90
3051;DHT22;1535;51.098;6.414;2023-08-12T08:02:16;21.90;99.90
3051;DHT22;1535;51.098;6.414;2023-08-12T08:04:43;21.90;99.90
3051;DHT22;1535;51.098;6.414;2023-08-12T08:07:16;22.20;99.90
3051;DHT22;1535;51.098;6.414;2023-08-12T08:09:43;22.30;99.90
3051;DHT22;1535;51.098;6.414;2023-08-12T08:12:12;22.40;99.90
3051;DHT22;1535;51.098;6.414;2023-08-12T08:14:42;22.50;99.90
3051;DHT22;1535;51.098;6.414;2023-08-12T08:17:09;22.50;99.90
3051;DHT22;1535;51.098;6.414;2023-08-12T08:19:36;22.60;99.90
3051;DHT22;1535;51.098;6.414;2023-08-12T08:22:03;22.60;99.90
3051;DHT22;1535;51.098;6.414;2023-08-12T08:24:30;22.60;99.90
3051;DHT22;1535;51.098;6.414;2023-08-12T08:26:58;22.50;99.90
3051;DHT22;1535;51.098;6.414;2023-08-12T08:29:25;22.50;99.90
3051;DHT22;1535;51.098;6.414;2023-08-12T08:31:53;22.40;99.90
3051;DHT22;1535;51.098;6.414;2023-08-12T08:34:21;22.20;99.90
3051;DHT22;1535;51.098;6.414;2023-08-12T08:36:47;22.00;99.90
3051;DHT22;1535;51.098;6.414;2023-08-12T08:39:14;21.80;99.90
3051;DHT22;1535;51.098;6.414;2023-08-12T08:41:42;21.70;99.90
3051;DHT22;1535;51.098;6.414;2023-08-12T08:44:11;21.70;99.90
3051;DHT22;1535;51.098;6.414;2023-08-12T08:46:41;21.70;99.90
3051;DHT22;1535;51.098;6.414;2023-08-12T08:49:10;21.70;99.90
3051;DHT22;1535;51.098;6.414;2023-08-12T08:51:38;21.90;99.90
3051;DHT22;1535;51.098;6.414;2023-08-12T08:54:06;22.00;99.90
3051;DHT22;1535;51.098;6.414;2023-08-12T08:56:33;22.00;99.90
3051;DHT22;1535;51.098;6.414;2023-08-12T08:59:00;22.10;99.90
3051;DHT22;1535;51.098;6.414;2023-08-12T09:01:28;22.30;99.90
3051;DHT22;1535;51.098;6.414;2023-08-12T09:03:57;22.30;99.90
3051;DHT22;1535;51.098;6.414;2023-08-12T09:06:26;22.50;99.90
3051;DHT22;1535;51.098;6.414;2023-08-12T09:08:55;22.80;99.90
3051;DHT22;1535;51.098;6.414;2023-08-12T09:11:23;22.80;99.90
3051;DHT22;1535;51.098;6.414;2023-08-12T09:13:50;22.80;99.90
3051;DHT22;1535;51.098;6.414;2023-08-12T09:16:17;22.90;99.90
3051;DHT22;1535;51.098;6.414;2023-08-12T09:18:47;23.00;99.90
3051;DHT22;1535;51.098;6.414;2023-08-12T09:21:16;23.00;99.90
3051;DHT22;1535;51.098;6.414;2023-08-12T09:23:44;23.00;99.90
3051;DHT22;1535;51.098;6.414;2023-08-12T09:26:15;23.00;99.90
3051;DHT22;1535;51.098;6.414;2023-08-12T09:28:43;23.00;99.90
3051;DHT22;1535;51.098;6.414;2023-08-12T09:31:22;23.10;99.90
3051;DHT22;1535;51.098;6.414;2023-08-12T09:33:50;23.30;99.90
3051;DHT22;1535;51.098;6.414;2023-08-12T09:36:18;23.70;99.90
3051;DHT22;1535;51.098;6.414;2023-08-12T09:38:47;24.00;99.90
3051;DHT22;1535;51.098;6.414;2023-08-12T09:41:15;23.90;99.90
3051;DHT22;1535;51.098;6.414;2023-08-12T09:43:43;24.10;99.90
3051;DHT22;1535;51.098;6.414;2023-08-12T09:46:14;24.20;99.90
3051;DHT22;1535;51.098;6.414;2023-08-12T09:48:42;24.30;99.90
3051;DHT22;1535;51.098;6.414;2023-08-12T09:51:09;24.40;99.90
3051;DHT22;1535;51.098;6.414;2023-08-12T09:53:36;24.30;99.90
3051;DHT22;1535;51.098;6.414;2023-08-12T09:56:06;24.30;99.90
3051;DHT22;1535;51.098;6.414;2023-08-12T09:58:35;24.40;99.90
3051;DHT22;1535;51.098;6.414;2023-08-12T10:01:03;24.40;99.90
3051;DHT22;1535;51.098;6.414;2023-08-12T10:03:30;24.60;99.90
3051;DHT22;1535;51.098;6.414;2023-08-12T10:06:01;24.80;99.90
3051;DHT22;1535;51.098;6.414;2023-08-12T10:08:30;24.70;99.90
3051;DHT22;1535;51.098;6.414;2023-08-12T10:10:59;24.90;99.90
3051;DHT22;1535;51.098;6.414;2023-08-12T10:13:27;24.50;99.90
3051;DHT22;1535;51.098;6.414;2023-08-12T10:15:54;23.90;99.90
3051;DHT22;1535;51.098;6.414;2023-08-12T10:18:22;23.10;99.90
3051;DHT22;1535;51.098;6.414;2023-08-12T10:20:50;22.50;99.90
3051;DHT22;1535;51.098;6.414;2023-08-12T10:23:18;22.40;99.90
3051;DHT22;1535;51.098;6.414;2023-08-12T10:25:47;22.40;99.90
3051;DHT22;1535;51.098;6.414;2023-08-12T10:28:19;22.40;99.90
3051;DHT22;1535;51.098;6.414;2023-08-12T10:30:47;22.30;99.90
3051;DHT22;1535;51.098;6.414;2023-08-12T10:33:15;22.10;99.90
3051;DHT22;1535;51.098;6.414;2023-08-12T10:35:44;22.10;99.90
3051;DHT22;1535;51.098;6.414;2023-08-12T10:38:13;22.10;99.90
3051;DHT22;1535;51.098;6.414;2023-08-12T10:40:43;22.00;99.90
3051;DHT22;1535;51.098;6.414;2023-08-12T10:43:11;22.00;99.90
3051;DHT22;1535;51.098;6.414;2023-08-12T10:45:43;22.00;99.90
3051;DHT22;1535;51.098;6.414;2023-08-12T10:48:18;22.00;99.90
3051;DHT22;1535;51.098;6.414;2023-08-12T10:50:45;22.10;99.90
3051;DHT22;1535;51.098;6.414;2023-08-12T10:53:23;21.90;99.90
3051;DHT22;1535;51.098;6.414;2023-08-12T10:55:55;22.00;99.90
3051;DHT22;1535;51.098;6.414;2023-08-12T10:58:29;22.10;99.90
3051;DHT22;1535;51.098;6.414;2023-08-12T11:00:57;22.20;99.90
3051;DHT22;1535;51.098;6.414;2023-08-12T11:03:28;22.30;99.90
3051;DHT22;1535;51.098;6.414;2023-08-12T11:05:59;22.50;99.90
3051;DHT22;1535;51.098;6.414;2023-08-12T11:08:26;22.90;99.90
3051;DHT22;1535;51.098;6.414;2023-08-12T11:10:55;23.30;99.90
3051;DHT22;1535;51.098;6.414;2023-08-12T11:13:26;23.70;99.90
3051;DHT22;1535;51.098;6.414;2023-08-12T11:16:05;24.30;99.90
3051;DHT22;1535;51.098;6.414;2023-08-12T11:18:43;24.90;99.90
3051;DHT22;1535;51.098;6.414;2023-08-12T11:21:11;25.30;99.90
3051;DHT22;1535;51.098;6.414;2023-08-12T11:23:39;25.40;99.90
3051;DHT22;1535;51.098;6.414;2023-08-12T11:26:07;24.90;99.90
3051;DHT22;1535;51.098;6.414;2023-08-12T11:28:37;24.30;99.90
3051;DHT22;1535;51.098;6.414;2023-08-12T11:31:04;23.90;99.90
3051;DHT22;1535;51.098;6.414;2023-08-12T11:33:33;23.60;99.90
3051;DHT22;1535;51.098;6.414;2023-08-12T11:36:05;23.80;99.90
3051;DHT22;1535;51.098;6.414;2023-08-12T11:38:32;23.80;99.90
3051;DHT22;1535;51.098;6.414;2023-08-12T11:41:00;23.90;99.90
3051;DHT22;1535;51.098;6.414;2023-08-12T11:43:28;23.70;99.90
3051;DHT22;1535;51.098;6.414;2023-08-12T11:45:56;23.70;99.90
3051;DHT22;1535;51.098;6.414;2023-08-12T11:48:23;24.20;99.90
3051;DHT22;1535;51.098;6.414;2023-08-12T11:50:53;24.50;99.90
3051;DHT22;1535;51.098;6.414;2023-08-12T11:53:22;25.70;99.90
3051;DHT22;1535;51.098;6.414;2023-08-12T11:55:49;26.90;99.90
3051;DHT22;1535;51.098;6.414;2023-08-12T11:58:16;27.10;99.90
3051;DHT22;1535;51.098;6.414;2023-08-12T12:00:44;26.70;99.90
3051;DHT22;1535;51.098;6.414;2023-08-12T12:03:13;25.50;99.90
3051;DHT22;1535;51.098;6.414;2023-08-12T12:05:48;23.80;99.90
3051;DHT22;1535;51.098;6.414;2023-08-12T12:08:19;22.20;99.90
3051;DHT22;1535;51.098;6.414;2023-08-12T12:10:50;21.60;99.90
3051;DHT22;1535;51.098;6.414;2023-08-12T12:13:17;21.20;99.90
3051;DHT22;1535;51.098;6.414;2023-08-12T12:15:44;21.10;99.90
3051;DHT22;1535;51.098;6.414;2023-08-12T12:18:12;21.10;99.90
3051;DHT22;1535;51.098;6.414;2023-08-12T12:20:54;21.20;99.90
3051;DHT22;1535;51.098;6.414;2023-08-12T12:23:22;21.10;99.90
3051;DHT22;1535;51.098;6.414;2023-08-12T12:25:59;21.10;99.90
3051;DHT22;1535;51.098;6.414;2023-08-12T12:28:31;21.00;99.90
3051;DHT22;1535;51.098;6.414;2023-08-12T12:30:59;21.00;99.90
3051;DHT22;1535;51.098;6.414;2023-08-12T12:33:28;20.80;99.90
3051;DHT22;1535;51.098;6.414;2023-08-12T12:35:55;20.80;99.90
3051;DHT22;1535;51.098;6.414;2023-08-12T12:38:22;20.90;99.90
3051;DHT22;1535;51.098;6.414;2023-08-12T12:40:49;21.00;99.90
3051;DHT22;1535;51.098;6.414;2023-08-12T12:43:18;21.10;99.90
3051;DHT22;1535;51.098;6.414;2023-08-12T12:45:45;21.20;99.90
3051;DHT22;1535;51.098;6.414;2023-08-12T12:48:12;21.30;99.90
3051;DHT22;1535;51.098;6.414;2023-08-12T12:50:38;21.30;99.90
3051;DHT22;1535;51.098;6.414;2023-08-12T12:53:05;21.40;99.90
3051;DHT22;1535;51.098;6.414;2023-08-12T12:55:33;21.50;99.90
3051;DHT22;1535;51.098;6.414;2023-08-12T12:58:00;21.50;99.90
3051;DHT22;1535;51.098;6.414;2023-08-12T13:00:32;21.30;99.90
3051;DHT22;1535;51.098;6.414;2023-08-12T13:03:05;21.00;99.90
3051;DHT22;1535;51.098;6.414;2023-08-12T13:05:32;21.00;99.90
3051;DHT22;1535;51.098;6.414;2023-08-12T13:07:59;20.80;99.90
3051;DHT22;1535;51.098;6.414;2023-08-12T13:10:25;20.90;99.90
3051;DHT22;1535;51.098;6.414;2023-08-12T13:12:52;21.20;99.90
3051;DHT22;1535;51.098;6.414;2023-08-12T13:15:19;21.30;99.90
3051;DHT22;1535;51.098;6.414;2023-08-12T13:17:51;21.50;99.90
3051;DHT22;1535;51.098;6.414;2023-08-12T13:20:17;22.00;99.90
3051;DHT22;1535;51.098;6.414;2023-08-12T13:22:44;22.30;99.90
3051;DHT22;1535;51.098;6.414;2023-08-12T13:25:11;22.40;99.90
3051;DHT22;1535;51.098;6.414;2023-08-12T13:27:38;22.90;99.90
3051;DHT22;1535;51.098;6.414;2023-08-12T13:30:06;23.30;99.90
3051;DHT22;1535;51.098;6.414;2023-08-12T13:32:34;23.70;99.90
3051;DHT22;1535;51.098;6.414;2023-08-12T13:35:03;23.90;99.90
3051;DHT22;1535;51.098;6.414;2023-08-12T13:37:30;24.80;99.90
3051;DHT22;1535;51.098;6.414;2023-08-12T13:39:57;25.60;99.90
3051;DHT22;1535;51.098;6.414;2023-08-12T13:42:24;26.50;99.90
3051;DHT22;1535;51.098;6.414;2023-08-12T13:44:51;27.00;99.90
3051;DHT22;1535;51.098;6.414;2023-08-12T13:47:18;27.50;99.90
3051;DHT22;1535;51.098;6.414;2023-08-12T13:49:45;28.00;99.90
3051;DHT22;1535;51.098;6.414;2023-08-12T13:52:14;27.90;99.90
3051;DHT22;1535;51.098;6.414;2023-08-12T13:54:42;27.60;99.90
3051;DHT22;1535;51.098;6.414;2023-08-12T13:57:09;27.50;99.90
3051;DHT22;1535;51.098;6.414;2023-08-12T13:59:37;27.40;99.90
3051;DHT22;1535;51.098;6.414;2023-08-12T14:02:06;27.40;99.90
3051;DHT22;1535;51.098;6.414;2023-08-12T14:04:33;27.00;99.90
3051;DHT22;1535;51.098;6.414;2023-08-12T14:07:00;26.90;99.90
3051;DHT22;1535;51.098;6.414;2023-08-12T14:09:29;27.00;99.90
3051;DHT22;1535;51.098;6.414;2023-08-12T14:11:56;26.80;99.90
3051;DHT22;1535;51.098;6.414;2023-08-12T14:14:23;27.30;99.90
3051;DHT22;1535;51.098;6.414;2023-08-12T14:16:53;27.80;99.90
3051;DHT22;1535;51.098;6.414;2023-08-12T14:19:20;27.80;99.90
3051;DHT22;1535;51.098;6.414;2023-08-12T14:21:47;27.90;99.90
3051;DHT22;1535;51.098;6.414;2023-08-12T14:24:14;28.30;99.90
3051;DHT22;1535;51.098;6.414;2023-08-12T14:26:43;28.00;99.90
3051;DHT22;1535;51.098;6.414;2023-08-12T14:29:10;27.60;99.90
3051;DHT22;1535;51.098;6.414;2023-08-12T14:31:37;27.50;99.90
3051;DHT22;1535;51.098;6.414;2023-08-12T14:34:04;28.20;99.90
3051;DHT22;1535;51.098;6.414;2023-08-12T14:36:31;28.00;99.90
3051;DHT22;1535;51.098;6.414;2023-08-12T14:38:58;27.60;99.90
3051;DHT22;1535;51.098;6.414;2023-08-12T14:41:25;27.90;99.90
3051;DHT22;1535;51.098;6.414;2023-08-12T14:43:54;28.30;99.90
3051;DHT22;1535;51.098;6.414;2023-08-12T14:46:21;28.10;99.90
3051;DHT22;1535;51.098;6.414;2023-08-12T14:48:48;28.40;99.90
3051;DHT22;1535;51.098;6.414;2023-08-12T14:51:16;28.70;99.90
3051;DHT22;1535;51.098;6.414;2023-08-12T14:53:43;29.30;99.90
3051;DHT22;1535;51.098;6.414;2023-08-12T14:56:10;29.80;99.90
3051;DHT22;1535;51.098;6.414;2023-08-12T14:58:37;29.50;99.90
3051;DHT22;1535;51.098;6.414;2023-08-12T15:01:08;29.40;99.90
3051;DHT22;1535;51.098;6.414;2023-08-12T15:03:38;28.90;99.90
3051;DHT22;1535;51.098;6.414;2023-08-12T15:06:11;29.30;99.90
3051;DHT22;1535;51.098;6.414;2023-08-12T15:08:41;30.00;99.90
3051;DHT22;1535;51.098;6.414;2023-08-12T15:11:11;30.00;99.90
3051;DHT22;1535;51.098;6.414;2023-08-12T15:13:41;30.10;99.90
3051;DHT22;1535;51.098;6.414;2023-08-12T15:16:10;30.30;99.90
3051;DHT22;1535;51.098;6.414;2023-08-12T15:18:37;30.30;99.90
3051;DHT22;1535;51.098;6.414;2023-08-12T15:21:04;29.70;99.90
3051;DHT22;1535;51.098;6.414;2023-08-12T15:23:31;28.80;99.90
3051;DHT22;1535;51.098;6.414;2023-08-12T15:25:58;29.20;99.90
3051;DHT22;1535;51.098;6.414;2023-08-12T15:28:26;28.80;99.90
3051;DHT22;1535;51.098;6.414;2023-08-12T15:30:53;28.10;99.90
3051;DHT22;1535;51.098;6.414;2023-08-12T15:33:22;28.50;99.90
3051;DHT22;1535;51.098;6.414;2023-08-12T15:35:49;28.50;99.90
3051;DHT22;1535;51.098;6.414;2023-08-12T15:38:17;28.60;99.90
3051;DHT22;1535;51.098;6.414;2023-08-12T15:40:44;28.80;99.90
3051;DHT22;1535;51.098;6.414;2023-08-12T15:43:10;28.90;99.90
3051;DHT22;1535;51.098;6.414;2023-08-12T15:45:38;28.90;99.90
3051;DHT22;1535;51.098;6.414;2023-08-12T15:48:07;29.00;99.90
3051;DHT22;1535;51.098;6.414;2023-08-12T15:50:36;29.10;99.90
3051;DHT22;1535;51.098;6.414;2023-08-12T15:53:03;29.70;99.90
3051;DHT22;1535;51.098;6.414;2023-08-12T15:55:30;29.00;99.90
3051;DHT22;1535;51.098;6.414;2023-08-12T15:57:57;29.40;99.90
3051;DHT22;1535;51.098;6.414;2023-08-12T16:00:25;30.00;99.90
3051;DHT22;1535;51.098;6.414;2023-08-12T16:02:52;30.20;99.90
3051;DHT22;1535;51.098;6.414;2023-08-12T16:05:19;29.70;99.90
3051;DHT22;1535;51.098;6.414;2023-08-12T16:07:48;29.80;99.90